Time;durP1;ratioP1;P1;durP2;ratioP2;P2;SDS_P1;SDS_P2;PMS_P1;PMS_P2;Temp;Humidity;BMP_temperature;BMP_pressure;BME280_temperature;BME280_humidity;BME280_pressure;Samples;Min_cycle;Max_cycle;Signal;HPM_P1;HPM_P2
2023/06/24 00:00:42;;;;;;;29.63;10.23;;;;;;;-142.57;70.27;115900.28;4957470;29;20127;-83
2023/06/24 00:03:08;;;;;;;23.58;10.02;;;;;;;-142.57;70.60;115900.28;4957312;29;20039;-84
2023/06/24 00:05:33;;;;;;;18.42;9.57;;;;;;;-142.57;68.53;115900.28;4957678;29;20039;-82
2023/06/24 00:08:02;;;;;;;17.88;9.20;;;;;;;-142.57;67.87;115900.28;4957145;29;20035;-85
2023/06/24 00:10:28;;;;;;;16.80;8.15;;;;;;;-142.57;67.69;115900.28;4957473;29;20465;-83
2023/06/24 00:12:53;;;;;;;22.77;8.90;;;;;;;-142.57;66.15;115900.28;4959370;29;20449;-83
2023/06/24 00:15:19;;;;;;;18.30;9.40;;;;;;;-142.57;66.07;115900.28;4962759;29;20086;-84
2023/06/24 00:17:45;;;;;;;20.83;8.80;;;;;;;-142.57;65.92;115900.28;4958673;28;20031;-83
2023/06/24 00:20:14;;;;;;;17.77;9.40;;;;;;;-142.57;66.04;115900.28;4960002;29;20070;-83
2023/06/24 00:22:43;;;;;;;17.20;8.90;;;;;;;-142.57;65.75;115900.28;4974488;28;20027;-83
2023/06/24 00:25:09;;;;;;;26.70;8.98;;;;;;;-142.57;65.92;115900.28;4980535;28;20099;-83
2023/06/24 00:27:35;;;;;;;20.42;8.80;;;;;;;-142.57;65.82;115900.28;4980786;28;20058;-83
2023/06/24 00:30:03;;;;;;;18.13;9.30;;;;;;;-142.57;65.77;115900.28;4963176;28;20050;-82
2023/06/24 00:32:28;;;;;;;21.38;9.10;;;;;;;-142.57;65.89;115900.28;4980840;28;20023;-83
2023/06/24 00:34:57;;;;;;;27.63;9.93;;;;;;;-142.57;65.68;115900.28;4980998;28;20054;-83
2023/06/24 00:37:23;;;;;;;19.30;9.73;;;;;;;-142.57;66.73;115900.28;4964034;28;20023;-82
2023/06/24 00:43:36;;;;;;;21.85;9.38;;;;;;;-142.57;67.10;115900.28;4966632;29;20133;-83
2023/06/24 00:46:02;;;;;;;18.73;9.68;;;;;;;-142.57;68.97;115900.28;4945764;29;20062;-82
2023/06/24 00:48:28;;;;;;;14.77;9.15;;;;;;;-142.57;68.87;115900.28;4939322;29;20093;-83
2023/06/24 00:50:58;;;;;;;19.13;10.02;;;;;;;-142.57;69.90;115900.28;4939110;29;20062;-82
2023/06/24 00:53:28;;;;;;;13.85;8.95;;;;;;;-142.57;69.94;115900.28;4938872;29;20094;-84
2023/06/24 00:56:01;;;;;;;19.90;9.23;;;;;;;-142.57;69.95;115900.28;4956191;29;20047;-84
2023/06/24 00:58:30;;;;;;;15.70;8.50;;;;;;;-142.57;70.66;115900.28;4939054;29;20098;-83
2023/06/24 01:00:57;;;;;;;20.42;9.10;;;;;;;-142.57;70.77;115900.28;4955212;28;20023;-83
2023/06/24 01:03:27;;;;;;;25.98;9.13;;;;;;;-142.57;71.60;115900.28;4938841;29;20035;-82
2023/06/24 01:05:56;;;;;;;21.58;8.82;;;;;;;-142.57;70.68;115900.28;4955990;29;20039;-83
2023/06/24 01:08:22;;;;;;;15.15;8.48;;;;;;;-142.57;68.53;115900.28;4955425;29;20094;-83
2023/06/24 01:10:50;;;;;;;16.15;8.35;;;;;;;-142.57;64.93;115900.28;4955031;29;20126;-84
2023/06/24 01:13:17;;;;;;;19.23;8.18;;;;;;;-142.57;63.91;115900.28;4954846;29;20046;-82
2023/06/24 01:15:44;;;;;;;16.48;7.30;;;;;;;-142.57;63.26;115900.28;4954834;29;20031;-81
2023/06/24 01:18:38;;;;;;;10.02;6.90;;;;;;;-142.57;61.55;115900.28;4937833;29;20050;-83
2023/06/24 01:21:25;;;;;;;14.45;7.38;;;;;;;-142.57;60.02;115900.28;4956053;29;20129;-81
2023/06/24 01:24:00;;;;;;;15.75;8.02;;;;;;;-142.57;58.54;115900.28;4945145;29;20481;-81
2023/06/24 01:26:51;;;;;;;15.05;7.53;;;;;;;-142.57;58.62;115900.28;4957376;29;20035;-82
2023/06/24 01:29:54;;;;;;;24.58;8.02;;;;;;;-142.57;57.28;115900.28;4975812;29;20038;-82
2023/06/24 01:32:33;;;;;;;23.08;7.15;;;;;;;-142.57;56.24;115900.28;4963491;29;20119;-81
2023/06/24 01:35:11;;;;;;;15.15;7.47;;;;;;;-142.57;54.28;115900.28;4963155;29;20031;-81
2023/06/24 01:37:59;;;;;;;15.50;6.90;;;;;;;-142.57;54.53;115900.28;4964859;29;20051;-81
2023/06/24 01:40:45;;;;;;;16.30;7.40;;;;;;;-142.57;53.57;115900.28;4957136;29;20147;-82
2023/06/24 01:43:14;;;;;;;14.13;7.38;;;;;;;-142.57;52.24;115900.28;4938156;29;20027;-82
2023/06/24 01:45:52;;;;;;;18.40;7.22;;;;;;;-142.57;53.09;115900.28;4937850;29;20051;-81
2023/06/24 01:48:23;;;;;;;13.60;6.65;;;;;;;-142.57;53.52;115900.28;4955561;29;20401;-81
2023/06/24 01:51:06;;;;;;;12.32;6.88;;;;;;;-142.57;54.07;115900.28;4937918;29;20036;-82
2023/06/24 01:53:39;;;;;;;16.25;6.88;;;;;;;-142.57;54.04;115900.28;4955193;29;20062;-83
2023/06/24 01:56:07;;;;;;;18.42;6.97;;;;;;;-142.57;53.09;115900.28;4954809;29;20039;-82
2023/06/24 01:58:35;;;;;;;10.40;6.70;;;;;;;-142.57;54.80;115900.28;4938022;29;20047;-81
2023/06/24 02:01:02;;;;;;;14.13;7.00;;;;;;;-142.57;55.72;115900.28;4937835;29;20062;-82
2023/06/24 02:03:28;;;;;;;9.93;6.95;;;;;;;-142.57;56.18;115900.28;4954773;29;20095;-81
2023/06/24 02:05:56;;;;;;;14.05;6.75;;;;;;;-142.57;56.87;115900.28;4954820;29;20130;-83
2023/06/24 02:08:24;;;;;;;13.88;7.25;;;;;;;-142.57;57.72;115900.28;4955100;29;20047;-82
2023/06/24 02:10:52;;;;;;;12.20;7.07;;;;;;;-142.57;57.79;115900.28;4921913;29;20031;-83
2023/06/24 02:13:19;;;;;;;13.65;7.50;;;;;;;-142.57;57.06;115900.28;4941226;29;20035;-84
2023/06/24 02:15:49;;;;;;;11.73;7.45;;;;;;;-142.57;57.72;115900.28;4959113;29;20118;-83
2023/06/24 02:18:17;;;;;;;17.55;7.28;;;;;;;-142.57;57.35;115900.28;4959080;29;20043;-83
2023/06/24 02:20:44;;;;;;;15.98;7.03;;;;;;;-142.57;56.41;115900.28;4959025;29;20031;-82
2023/06/24 02:23:11;;;;;;;17.98;7.28;;;;;;;-142.57;57.20;115900.28;4958459;29;20070;-84
2023/06/24 02:25:38;;;;;;;12.55;6.80;;;;;;;-142.57;56.55;115900.28;4959162;29;20396;-82
2023/06/24 02:28:05;;;;;;;10.13;6.68;;;;;;;-142.57;54.97;115900.28;4941458;29;20039;-84
2023/06/24 02:30:38;;;;;;;12.93;6.93;;;;;;;-142.57;54.38;115900.28;4941536;29;20059;-83
2023/06/24 02:33:04;;;;;;;12.13;6.47;;;;;;;-142.57;54.65;115900.28;4958200;29;20094;-82
2023/06/24 02:35:30;;;;;;;10.07;6.55;;;;;;;-142.57;55.18;115900.28;4958525;29;20047;-82
2023/06/24 02:37:55;;;;;;;13.27;6.95;;;;;;;-142.57;55.41;115900.28;4958308;29;20047;-83
2023/06/24 02:40:21;;;;;;;14.27;7.65;;;;;;;-142.57;55.79;115900.28;4941257;29;20042;-83
2023/06/24 02:42:47;;;;;;;10.85;6.22;;;;;;;-142.57;55.56;115900.28;4940959;29;20396;-84
2023/06/24 02:45:19;;;;;;;15.18;7.10;;;;;;;-142.57;55.67;115900.28;4958944;29;20058;-83
2023/06/24 02:47:47;;;;;;;15.15;6.97;;;;;;;-142.57;55.93;115900.28;4941157;29;20039;-83
2023/06/24 02:50:14;;;;;;;13.85;6.85;;;;;;;-142.57;56.74;115900.28;4959557;29;20031;-82
2023/06/24 02:52:40;;;;;;;14.82;6.55;;;;;;;-142.57;57.31;115900.28;4941075;29;20500;-83
2023/06/24 02:55:09;;;;;;;13.35;7.13;;;;;;;-142.57;56.50;115900.28;4941131;29;20023;-83
2023/06/24 02:57:39;;;;;;;10.88;6.50;;;;;;;-142.57;55.41;115900.28;4958181;29;20070;-83
2023/06/24 03:00:27;;;;;;;12.35;6.70;;;;;;;-142.57;54.76;115900.28;4950974;29;20039;-81
2023/06/24 03:03:13;;;;;;;12.95;6.47;;;;;;;-142.57;55.02;115900.28;4957929;29;20058;-82
2023/06/24 03:06:02;;;;;;;9.75;6.32;;;;;;;-142.57;56.21;115900.28;4957457;29;20039;-82
2023/06/24 03:08:29;;;;;;;11.95;6.97;;;;;;;-142.57;57.85;115900.28;4940664;29;20473;-82
2023/06/24 03:10:57;;;;;;;19.42;6.80;;;;;;;-142.57;57.31;115900.28;4941366;29;20404;-83
2023/06/24 03:13:24;;;;;;;17.17;6.93;;;;;;;-142.57;56.81;115900.28;4940669;29;20041;-83
2023/06/24 03:15:56;;;;;;;;;;;;;;;-142.57;57.12;115900.28;4941741;29;20051;-83
2023/06/24 03:18:21;;;;;;;12.82;6.90;;;;;;;-142.57;57.24;115900.28;4940575;29;20207;-83
2023/06/24 03:20:48;;;;;;;18.20;7.63;;;;;;;-142.57;58.37;115900.28;4940901;29;20485;-82
2023/06/24 03:23:17;;;;;;;14.00;7.30;;;;;;;-142.57;58.64;115900.28;4939509;29;20042;-82
2023/06/24 03:25:43;;;;;;;11.63;7.20;;;;;;;-142.57;58.98;115900.28;4940329;29;20098;-81
2023/06/24 03:28:09;;;;;;;14.45;6.95;;;;;;;-142.57;58.93;115900.28;4957979;29;20126;-82
2023/06/24 03:30:41;;;;;;;13.55;8.35;;;;;;;-142.57;59.03;115900.28;4957526;29;20432;-84
2023/06/24 03:33:07;;;;;;;13.10;7.63;;;;;;;-142.57;57.96;115900.28;4940686;29;20171;-83
2023/06/24 03:35:36;;;;;;;15.27;7.32;;;;;;;-142.57;57.73;115900.28;4939896;29;20027;-83
2023/06/24 03:38:08;;;;;;;19.40;7.25;;;;;;;-142.57;57.73;115900.28;4940579;29;20066;-82
2023/06/24 03:40:34;;;;;;;15.95;6.63;;;;;;;-142.57;57.76;115900.28;4940255;29;20035;-84
2023/06/24 03:43:00;;;;;;;12.60;7.10;;;;;;;-142.57;56.48;115900.28;4939975;29;20019;-82
2023/06/24 03:45:25;;;;;;;12.90;6.55;;;;;;;-142.57;56.31;115900.28;4940094;29;20047;-83
2023/06/24 03:47:54;;;;;;;12.55;6.07;;;;;;;-142.57;56.98;115900.28;4940135;29;20073;-83
2023/06/24 03:50:20;;;;;;;13.65;6.68;;;;;;;-142.57;56.35;115900.28;4924408;29;20136;-82
2023/06/24 03:52:45;;;;;;;13.48;6.95;;;;;;;-142.57;56.00;115900.28;4939824;29;20134;-83
2023/06/24 03:55:11;;;;;;;15.30;6.75;;;;;;;-142.57;56.54;115900.28;4940195;29;20106;-86
2023/06/24 03:57:37;;;;;;;13.95;6.72;;;;;;;-142.57;56.12;115900.28;4940078;29;20051;-83
2023/06/24 04:00:15;;;;;;;12.88;7.10;;;;;;;-142.57;56.25;115900.28;4957147;29;20035;-83
2023/06/24 04:02:45;;;;;;;15.65;6.95;;;;;;;-142.57;57.29;115900.28;4957737;29;20039;-84
2023/06/24 04:05:11;;;;;;;15.85;7.05;;;;;;;-142.57;57.64;115900.28;4942911;28;20537;-85
2023/06/24 04:07:36;;;;;;;12.52;6.95;;;;;;;-142.57;58.11;115900.28;4959424;28;20063;-83
2023/06/24 04:10:03;;;;;;;21.98;7.78;;;;;;;-142.57;57.79;115900.28;4976071;28;20432;-82
2023/06/24 04:12:29;;;;;;;13.88;6.82;;;;;;;-142.57;58.08;115900.28;4958622;28;20077;-82
2023/06/24 04:14:55;;;;;;;20.40;7.68;;;;;;;-142.57;57.36;115900.28;4976095;28;20039;-82
2023/06/24 04:17:20;;;;;;;10.75;6.47;;;;;;;-142.57;58.26;115900.28;4975851;28;20129;-83
2023/06/24 04:19:46;;;;;;;17.30;6.85;;;;;;;-142.57;57.80;115900.28;4975670;28;20110;-83
2023/06/24 04:22:11;;;;;;;18.30;6.57;;;;;;;-142.57;57.48;115900.28;4958345;28;20043;-83
2023/06/24 04:24:37;;;;;;;18.73;6.38;;;;;;;-142.57;57.80;115900.28;4975472;28;20113;-83
2023/06/24 04:27:03;;;;;;;16.40;7.78;;;;;;;-142.57;57.48;115900.28;4975632;28;20034;-82
2023/06/24 04:29:29;;;;;;;16.27;7.25;;;;;;;-142.57;56.90;115900.28;4958389;28;20034;-84
2023/06/24 04:31:55;;;;;;;17.33;7.55;;;;;;;-142.57;56.54;115900.28;4958440;28;20377;-82
2023/06/24 04:34:20;;;;;;;22.30;7.82;;;;;;;-142.57;57.19;115900.28;4958389;28;20031;-85
2023/06/24 04:36:47;;;;;;;14.50;7.13;;;;;;;-142.57;57.88;115900.28;4958123;28;20043;-83
2023/06/24 04:39:12;;;;;;;12.88;6.82;;;;;;;-142.57;56.69;115900.28;4975579;28;20034;-82
2023/06/24 04:41:38;;;;;;;10.35;6.60;;;;;;;-142.57;56.39;115900.28;4975702;28;20113;-83
2023/06/24 04:44:05;;;;;;;12.55;6.68;;;;;;;-142.57;56.91;115900.28;4975458;28;20030;-85
2023/06/24 04:46:32;;;;;;;12.55;7.40;;;;;;;-142.57;56.83;115900.28;4975240;28;20507;-85
2023/06/24 04:48:58;;;;;;;10.48;6.68;;;;;;;-142.57;57.67;115900.28;4958969;28;20101;-86
2023/06/24 04:51:23;;;;;;;14.38;7.03;;;;;;;-142.57;58.00;115900.28;4975582;28;20043;-84
2023/06/24 04:53:52;;;;;;;24.80;6.90;;;;;;;-142.57;58.07;115900.28;4975172;28;20027;-86
2023/06/24 04:56:21;;;;;;;13.63;6.93;;;;;;;-142.57;58.61;115900.28;4974998;28;20046;-82
2023/06/24 04:58:49;;;;;;;17.45;7.03;;;;;;;-142.57;59.30;115900.28;4975433;28;20424;-82
2023/06/24 05:01:15;;;;;;;18.90;7.20;;;;;;;-142.57;58.94;115900.28;4959762;28;20047;-86
2023/06/24 05:03:40;;;;;;;18.85;6.70;;;;;;;-142.57;59.80;115900.28;4979281;28;20516;-85
2023/06/24 05:06:06;;;;;;;17.65;7.50;;;;;;;-142.57;60.02;115900.28;4964198;28;20035;-87
2023/06/24 05:08:31;;;;;;;16.40;6.90;;;;;;;-142.57;60.41;115900.28;4976478;28;20109;-83
2023/06/24 05:10:57;;;;;;;16.58;6.68;;;;;;;-142.57;60.41;115900.28;4978289;28;20038;-81
2023/06/24 05:13:23;;;;;;;21.48;7.35;;;;;;;-142.57;60.81;115900.28;4977968;28;20034;-85
2023/06/24 05:15:48;;;;;;;23.90;6.55;;;;;;;-142.57;57.06;115900.28;4977433;28;20046;-83
2023/06/24 05:18:14;;;;;;;20.45;7.13;;;;;;;-142.57;59.14;115900.28;4976793;28;20038;-83
2023/06/24 05:20:40;;;;;;;12.27;6.28;;;;;;;-142.57;57.75;115900.28;4943492;28;20073;-86
2023/06/24 05:23:05;;;;;;;17.80;6.30;;;;;;;-142.57;57.21;115900.28;4976716;28;20385;-85
2023/06/24 05:25:32;;;;;;;15.40;6.05;;;;;;;-142.57;57.65;115900.28;4959249;28;20480;-83
2023/06/24 05:27:57;;;;;;;9.40;5.18;;;;;;;-142.57;53.43;115900.28;4976267;28;20098;-85
2023/06/24 05:30:23;;;;;;;15.95;5.63;;;;;;;-142.57;51.21;115900.28;4978024;28;20031;-83
2023/06/24 05:32:49;;;;;;;16.52;6.00;;;;;;;-142.57;50.56;115900.28;4975426;28;20023;-83
2023/06/24 05:35:14;;;;;;;10.82;5.55;;;;;;;-142.57;49.53;115900.28;4977052;28;20472;-85
2023/06/24 05:37:40;;;;;;;14.23;5.50;;;;;;;-142.57;47.91;115900.28;4977282;28;20125;-85
2023/06/24 05:40:09;;;;;;;15.38;5.15;;;;;;;-142.57;46.13;115900.28;4963485;28;20047;-87
2023/06/24 05:42:35;;;;;;;9.60;4.90;;;;;;;-142.57;45.29;115900.28;4980815;28;20043;-82
2023/06/24 05:45:00;;;;;;;12.23;4.82;;;;;;;-142.57;43.71;115900.28;4963027;28;20587;-85
2023/06/24 05:47:26;;;;;;;10.82;4.55;;;;;;;-142.57;43.37;115900.28;4983478;28;20042;-84
2023/06/24 05:49:51;;;;;;;8.30;4.53;;;;;;;-142.57;38.52;115900.28;4990411;28;20033;-85
2023/06/24 05:52:17;;;;;;;7.65;3.78;;;;;;;-142.57;38.20;115900.28;4988880;28;20063;-83
2023/06/24 05:54:42;;;;;;;10.35;4.20;;;;;;;-142.57;36.05;115900.28;4980337;28;20105;-85
2023/06/24 05:57:09;;;;;;;6.68;3.67;;;;;;;-142.57;35.44;115900.28;4959047;28;20049;-84
2023/06/24 05:59:34;;;;;;;9.48;4.13;;;;;;;-142.57;35.54;115900.28;4959841;28;20066;-84
2023/06/24 06:02:01;;;;;;;10.48;4.15;;;;;;;-142.57;35.64;115900.28;4976895;28;20035;-82
2023/06/24 06:04:27;;;;;;;14.52;4.07;;;;;;;-142.57;36.03;115900.28;4960041;28;20041;-83
2023/06/24 06:06:53;;;;;;;14.38;4.20;;;;;;;-142.57;36.71;115900.28;4978357;28;20046;-84
2023/06/24 06:09:20;;;;;;;6.80;4.32;;;;;;;-142.57;36.08;115900.28;4995687;28;20027;-86
2023/06/24 06:11:45;;;;;;;7.40;4.40;;;;;;;-142.57;36.29;115900.28;4965678;28;20054;-86
2023/06/24 06:14:11;;;;;;;10.65;4.30;;;;;;;-142.57;35.97;115900.28;4965735;28;20035;-88
2023/06/24 06:16:36;;;;;;;16.30;5.35;;;;;;;-142.57;35.76;115900.28;4981983;28;20047;-85
2023/06/24 06:19:03;;;;;;;9.93;6.13;;;;;;;-142.57;36.01;115900.28;4982417;28;20039;-87
2023/06/24 06:21:29;;;;;;;12.73;6.13;;;;;;;-142.57;35.86;115900.28;4982175;28;20045;-85
2023/06/24 06:23:54;;;;;;;10.73;5.70;;;;;;;-142.57;36.03;115900.28;4966123;28;20019;-85
2023/06/24 06:26:20;;;;;;;14.70;6.18;;;;;;;-142.57;35.88;115900.28;4992136;28;20057;-82
2023/06/24 06:28:47;;;;;;;13.38;6.10;;;;;;;-142.57;34.97;115900.28;4988324;28;20115;-83
2023/06/24 06:31:13;;;;;;;13.35;5.18;;;;;;;-142.57;33.62;115900.28;4984100;28;20019;-81
2023/06/24 06:33:38;;;;;;;21.92;6.30;;;;;;;-142.57;32.94;115900.28;4977796;28;20035;-82
2023/06/24 06:36:07;;;;;;;9.73;5.63;;;;;;;-142.57;32.70;115900.28;4958923;28;20037;-82
2023/06/24 06:38:35;;;;;;;9.35;4.30;;;;;;;-142.57;33.09;115900.28;4976115;28;20039;-88
2023/06/24 06:41:01;;;;;;;10.38;5.50;;;;;;;-142.57;33.54;115900.28;4959503;28;20035;-83
2023/06/24 06:43:26;;;;;;;11.32;5.68;;;;;;;-142.57;33.15;115900.28;4975882;28;20027;-85
2023/06/24 06:45:52;;;;;;;10.32;5.35;;;;;;;-142.57;32.99;115900.28;4975921;28;20548;-85
2023/06/24 06:48:17;;;;;;;10.02;4.22;;;;;;;-142.57;31.84;115900.28;4958576;28;20043;-84
2023/06/24 06:50:45;;;;;;;6.25;4.82;;;;;;;-142.57;31.14;115900.28;4975993;28;20035;-81
2023/06/24 06:53:17;;;;;;;10.73;4.78;;;;;;;-142.57;31.09;115900.28;4959139;28;20489;-83
2023/06/24 06:55:48;;;;;;;10.27;4.55;;;;;;;-142.57;32.01;115900.28;4959419;28;20404;-82
2023/06/24 06:58:15;;;;;;;11.27;5.15;;;;;;;-142.57;31.21;115900.28;4977262;28;20500;-81
2023/06/24 07:00:44;;;;;;;13.65;5.05;;;;;;;-142.57;31.00;115900.28;4961270;28;20033;-83
2023/06/24 07:03:10;;;;;;;8.77;4.63;;;;;;;-142.57;31.37;115900.28;4979234;28;20030;-87
2023/06/24 07:05:36;;;;;;;9.45;4.78;;;;;;;-142.57;31.46;115900.28;4961413;28;20057;-83
2023/06/24 07:08:01;;;;;;;11.65;5.88;;;;;;;-142.57;31.18;115900.28;4944352;29;20123;-88
2023/06/24 07:10:31;;;;;;;10.32;4.70;;;;;;;-142.57;31.95;115900.28;4957450;28;20039;-86
2023/06/24 07:12:58;;;;;;;11.75;4.45;;;;;;;-142.57;31.44;115900.28;4975156;28;20417;-92
2023/06/24 07:15:26;;;;;;;12.60;5.40;;;;;;;-142.57;30.91;115900.28;4992554;28;20141;-90
2023/06/24 07:17:53;;;;;;;28.33;6.05;;;;;;;-142.57;31.47;115900.28;4969249;28;20047;-85
2023/06/24 07:20:20;;;;;;;17.13;5.25;;;;;;;-142.57;31.17;115900.28;4962260;28;20476;-83
2023/06/24 07:22:45;;;;;;;7.78;4.82;;;;;;;-142.57;29.74;115900.28;4979618;28;20050;-84
2023/06/24 07:25:12;;;;;;;14.75;5.10;;;;;;;-142.57;29.29;115900.28;4986291;28;20035;-90
2023/06/24 07:27:37;;;;;;;12.45;5.15;;;;;;;-142.57;29.54;115900.28;4982632;28;20047;-87
2023/06/24 07:30:08;;;;;;;8.57;4.57;;;;;;;-142.57;28.11;115900.28;4970481;28;20042;-90
2023/06/24 07:33:09;;;;;;;11.25;5.15;;;;;;;-142.57;28.88;115900.28;5144479;27;20407;-91
2023/06/24 07:35:38;;;;;;;9.65;4.95;;;;;;;-142.57;29.36;115900.28;5119720;28;20035;-89
2023/06/24 07:38:06;;;;;;;10.07;4.82;;;;;;;-142.57;29.05;115900.28;5123718;28;20018;-89
2023/06/24 07:40:35;;;;;;;7.20;4.50;;;;;;;-142.57;28.47;115900.28;5098800;28;20023;-87
2023/06/24 07:43:05;;;;;;;12.43;4.93;;;;;;;-142.57;27.53;115900.28;5120406;28;20081;-92
2023/06/24 07:45:31;;;;;;;15.43;5.65;;;;;;;-142.57;28.87;115900.28;5101286;27;20040;-90
2023/06/24 07:47:59;;;;;;;14.38;5.40;;;;;;;-142.57;29.05;115900.28;5116918;28;20039;-88
2023/06/24 07:50:24;;;;;;;14.88;5.82;;;;;;;-142.57;29.46;115900.28;5113289;28;20020;-85
2023/06/24 07:52:50;;;;;;;12.90;5.40;;;;;;;-142.57;30.47;115900.28;5112174;28;20058;-86
2023/06/24 07:55:15;;;;;;;10.23;5.15;;;;;;;-142.57;29.74;115900.28;5113013;28;20113;-88
2023/06/24 07:57:45;;;;;;;11.93;4.97;;;;;;;-142.57;28.88;115900.28;5114182;28;20101;-88
2023/06/24 08:00:14;;;;;;;12.38;4.60;;;;;;;-142.57;29.03;115900.28;5119554;28;20160;-90
2023/06/24 08:02:42;;;;;;;12.30;4.82;;;;;;;-142.57;29.18;115900.28;5112995;28;20110;-87
2023/06/24 08:05:09;;;;;;;11.63;4.78;;;;;;;-142.57;28.66;115900.28;5121007;28;20401;-86
2023/06/24 08:07:35;;;;;;;22.05;5.30;;;;;;;-142.57;28.32;115900.28;5126462;28;20047;-87
2023/06/24 08:10:01;;;;;;;11.18;4.78;;;;;;;-142.57;28.60;115900.28;5116756;28;20439;-85
2023/06/24 08:12:27;;;;;;;13.07;5.18;;;;;;;-142.57;28.50;115900.28;5117725;28;20028;-84
2023/06/24 08:14:52;;;;;;;13.73;5.10;;;;;;;-142.57;28.02;115900.28;5121608;28;20055;-83
2023/06/24 08:17:18;;;;;;;10.82;4.63;;;;;;;-142.57;27.56;115900.28;5113600;28;20060;-84
2023/06/24 08:19:43;;;;;;;11.82;4.35;;;;;;;-142.57;27.12;115900.28;5112491;28;20043;-87
2023/06/24 08:22:09;;;;;;;12.10;4.30;;;;;;;-142.57;27.48;115900.28;5111887;28;20471;-86
2023/06/24 08:24:34;;;;;;;7.55;4.03;;;;;;;-142.57;28.02;115900.28;5111598;28;20036;-83
2023/06/24 08:27:00;;;;;;;9.57;4.30;;;;;;;-142.57;28.39;115900.28;5111904;28;20031;-86
2023/06/24 08:29:25;;;;;;;17.73;3.33;;;;;;;-142.57;27.36;115900.28;5110890;28;20031;-86
2023/06/24 08:31:51;;;;;;;7.88;3.03;;;;;;;-142.57;27.45;115900.28;5109299;28;20044;-84
2023/06/24 08:34:29;;;;;;;7.35;3.83;;;;;;;-142.57;26.44;115900.28;5111436;28;20397;-84
2023/06/24 08:36:57;;;;;;;8.68;3.50;;;;;;;-142.57;26.29;115900.28;5110688;28;20206;-86
2023/06/24 08:39:23;;;;;;;8.18;3.78;;;;;;;-142.57;26.72;115900.28;5111384;28;20031;-83
2023/06/24 08:41:49;;;;;;;8.85;3.50;;;;;;;-142.57;27.01;115900.28;5110886;28;20400;-81
2023/06/24 08:44:15;;;;;;;10.73;3.20;;;;;;;-142.57;27.05;115900.28;5096430;28;20401;-85
2023/06/24 08:46:41;;;;;;;14.77;3.83;;;;;;;-142.57;26.38;115900.28;5102841;28;20032;-77
2023/06/24 08:49:22;;;;;;;7.85;3.75;;;;;;;-142.57;26.67;115900.28;5106582;28;20126;-81
2023/06/24 08:51:59;;;;;;;8.30;3.70;;;;;;;-142.57;26.95;115900.28;5101909;28;20542;-83
2023/06/24 08:54:25;;;;;;;8.43;3.60;;;;;;;-142.57;26.25;115900.28;5096969;28;20036;-83
2023/06/24 08:56:51;;;;;;;6.95;2.85;;;;;;;-142.57;25.66;115900.28;5096971;28;20024;-83
2023/06/24 08:59:19;;;;;;;10.38;3.30;;;;;;;-142.57;26.59;115900.28;5097217;28;20056;-84
2023/06/24 09:01:46;;;;;;;11.10;3.78;;;;;;;-142.57;26.97;115900.28;5096579;28;20043;-83
2023/06/24 09:04:11;;;;;;;7.93;3.28;;;;;;;-142.57;27.84;115900.28;5098281;28;20040;-87
2023/06/24 09:06:37;;;;;;;9.95;3.60;;;;;;;-142.57;26.98;115900.28;5097751;28;20089;-85
2023/06/24 09:09:03;;;;;;;7.22;3.22;;;;;;;-142.57;27.93;115900.28;5096088;28;20039;-91
2023/06/24 09:11:28;;;;;;;6.80;3.42;;;;;;;-142.57;26.25;115900.28;5097345;28;20032;-85
2023/06/24 09:14:01;;;;;;;5.32;3.10;;;;;;;-142.57;26.52;115900.28;5096448;28;20107;-86
2023/06/24 09:16:29;;;;;;;8.43;3.50;;;;;;;-142.57;26.22;115900.28;5096955;28;20032;-84
2023/06/24 09:18:55;;;;;;;9.93;3.90;;;;;;;-142.57;26.54;115900.28;5097160;28;20086;-87
2023/06/24 09:21:30;;;;;;;9.70;3.80;;;;;;;-142.57;27.39;115900.28;5096629;28;20516;-80
2023/06/24 09:23:57;;;;;;;10.50;4.20;;;;;;;-142.57;27.13;115900.28;5097093;28;20067;-84
2023/06/24 09:26:24;;;;;;;6.72;3.22;;;;;;;-142.57;26.14;115900.28;5097952;28;20381;-84
2023/06/24 09:28:50;;;;;;;7.30;3.80;;;;;;;-142.57;26.14;115900.28;5098037;28;20447;-89
2023/06/24 09:31:18;;;;;;;10.82;3.67;;;;;;;-142.57;26.16;115900.28;5097982;28;20047;-86
2023/06/24 09:33:44;;;;;;;5.38;3.50;;;;;;;-142.57;25.98;115900.28;5097041;28;20085;-80
2023/06/24 09:36:14;;;;;;;7.15;3.53;;;;;;;-142.57;26.80;115900.28;5096521;28;20059;-87
2023/06/24 09:38:44;;;;;;;7.00;3.85;;;;;;;-142.57;27.09;115900.28;5096607;28;20070;-81
2023/06/24 09:41:10;;;;;;;12.40;4.30;;;;;;;-142.57;26.72;115900.28;5097395;28;20044;-85
2023/06/24 09:43:39;;;;;;;7.32;3.53;;;;;;;-142.57;26.94;115900.28;5095163;28;20082;-86
2023/06/24 09:46:05;;;;;;;8.45;3.75;;;;;;;-142.57;26.86;115900.28;5096609;28;20052;-84
2023/06/24 09:48:30;;;;;;;10.30;3.63;;;;;;;-142.57;26.46;115900.28;5094680;28;20036;-90
2023/06/24 09:51:01;;;;;;;7.95;3.33;;;;;;;-142.57;27.04;115900.28;5095652;28;20393;-83
2023/06/24 09:53:37;;;;;;;11.55;3.50;;;;;;;-142.57;27.58;115900.28;5095658;28;20059;-83
2023/06/24 09:56:07;;;;;;;6.70;3.70;;;;;;;-142.57;26.57;115900.28;5094283;28;20469;-81
2023/06/24 10:01:25;;;;;;;;;;;;;;;-142.57;27.24;115900.28;5052734;28;20052;-85
2023/06/24 10:03:50;;;;;;;6.50;3.28;;;;;;;-142.57;26.97;115900.28;5036212;28;19996;-85
2023/06/24 10:06:16;;;;;;;9.85;3.25;;;;;;;-142.57;26.93;115900.28;5053081;28;20040;-81
2023/06/24 10:08:42;;;;;;;8.18;2.90;;;;;;;-142.57;27.49;115900.28;5052428;28;20033;-84
2023/06/24 10:11:08;;;;;;;19.23;3.80;;;;;;;-142.57;27.24;115900.28;5053024;28;20502;-80
2023/06/24 10:13:34;;;;;;;7.72;3.28;;;;;;;-142.57;27.01;115900.28;5036842;28;20677;-82
2023/06/24 10:15:59;;;;;;;6.55;3.35;;;;;;;-142.57;26.94;115900.28;5054038;28;20052;-83
2023/06/24 10:18:30;;;;;;;5.45;3.30;;;;;;;-142.57;27.03;115900.28;5054201;28;20076;-81
2023/06/24 10:20:56;;;;;;;9.27;3.20;;;;;;;-142.57;27.15;115900.28;5053009;28;20588;-82
2023/06/24 10:23:22;;;;;;;9.95;3.50;;;;;;;-142.57;27.46;115900.28;5052359;28;20036;-79
2023/06/24 10:25:48;;;;;;;11.88;3.60;;;;;;;-142.57;27.73;115900.28;5052547;28;20131;-82
2023/06/24 10:28:14;;;;;;;11.77;3.97;;;;;;;-142.57;27.23;115900.28;5052897;28;20029;-88
2023/06/24 10:30:39;;;;;;;9.52;3.83;;;;;;;-142.57;27.28;115900.28;5052236;28;20131;-80
2023/06/24 10:33:10;;;;;;;16.92;3.50;;;;;;;-142.57;27.56;115900.28;5052572;28;20045;-81
2023/06/24 10:35:43;;;;;;;6.93;3.75;;;;;;;-142.57;27.28;115900.28;5051928;28;20047;-83
2023/06/24 10:38:10;;;;;;;9.38;3.38;;;;;;;-142.57;27.11;115900.28;5069204;28;20044;-82
2023/06/24 10:40:43;;;;;;;10.10;3.53;;;;;;;-142.57;26.66;115900.28;5093157;28;20044;-85
2023/06/24 10:43:24;;;;;;;10.15;3.30;;;;;;;-142.57;26.04;115900.28;5094722;28;20032;-87
2023/06/24 10:45:54;;;;;;;8.88;3.08;;;;;;;-142.57;26.13;115900.28;5095297;28;20071;-81
2023/06/24 10:48:20;;;;;;;4.40;3.35;;;;;;;-142.57;25.38;115900.28;5094636;28;20038;-81
2023/06/24 10:50:49;;;;;;;7.57;3.10;;;;;;;-142.57;26.16;115900.28;5094881;28;20039;-85
2023/06/24 10:53:15;;;;;;;5.05;3.13;;;;;;;-142.57;26.03;115900.28;5094388;28;20389;-86
2023/06/24 10:55:41;;;;;;;5.82;2.80;;;;;;;-142.57;25.69;115900.28;5094392;28;20095;-85
2023/06/24 10:58:12;;;;;;;10.32;3.60;;;;;;;-142.57;25.35;115900.28;5094338;28;20124;-84
2023/06/24 11:00:38;;;;;;;7.80;2.93;;;;;;;-142.57;25.17;115900.28;5093471;28;20081;-82
2023/06/24 11:03:11;;;;;;;5.47;3.20;;;;;;;-142.57;24.85;115900.28;5094450;28;20032;-85
2023/06/24 11:05:40;;;;;;;5.07;3.10;;;;;;;-142.57;25.26;115900.28;5094051;28;20066;-86
2023/06/24 11:08:06;;;;;;;8.18;3.63;;;;;;;-142.57;25.11;115900.28;5094264;28;20035;-83
2023/06/24 11:10:31;;;;;;;5.35;2.95;;;;;;;-142.57;25.01;115900.28;5093969;28;20032;-81
2023/06/24 11:12:58;;;;;;;8.23;3.00;;;;;;;-142.57;24.73;115900.28;5093989;28;20039;-83
2023/06/24 11:15:24;;;;;;;4.32;2.78;;;;;;;-142.57;24.11;115900.28;5093970;28;20085;-84